Holland, New York
Current Conditions -  °F | °C
As of 8:54 AM on Wednesday 28 Jan 2015 (Local Time) from KBUF Reporting Station
Few Clouds Few Clouds  
Wind Chill: -2°   Ceiling: Unl
Heat Index:   Visibility: 10mi
Dew Point:   Wind: 7mph
Humidity: 80%   Direction: 200°SSW
Pressure: 30.27"   Gusts: NA
Location:  42.64°N, 78.54°W
Report Text: KBUF 281354Z 20006KT 10SM FEW250 M13/M16 A3027 RMK AO2 SLP266 T11281156
Loading
Personal Weather Stations






























Interactive Weather Map New forecast layout! Learn more

10-Day Weather Forecast

Advertisements
Track Severe Weather on mobile